sensor_id;sensor_type;location;lat;lon;timestamp;P1;durP1;ratioP1;P2;durP2;ratioP2
21671;SDS011;10997;52.242;8.168;2024-03-22T00:04:41;47.20;;;31.73;;
21671;SDS011;10997;52.242;8.168;2024-03-22T00:09:41;47.47;;;32.65;;
21671;SDS011;10997;52.242;8.168;2024-03-22T00:14:42;49.58;;;34.70;;
21671;SDS011;10997;52.242;8.168;2024-03-22T00:19:43;51.20;;;35.40;;
21671;SDS011;10997;52.242;8.168;2024-03-22T00:24:43;52.00;;;36.08;;
21671;SDS011;10997;52.242;8.168;2024-03-22T00:29:45;56.75;;;37.85;;
21671;SDS011;10997;52.242;8.168;2024-03-22T00:34:45;58.33;;;38.95;;
21671;SDS011;10997;52.242;8.168;2024-03-22T00:39:46;58.38;;;37.72;;
21671;SDS011;10997;52.242;8.168;2024-03-22T00:44:46;53.67;;;36.03;;
21671;SDS011;10997;52.242;8.168;2024-03-22T00:49:47;60.45;;;38.38;;
21671;SDS011;10997;52.242;8.168;2024-03-22T00:54:48;58.35;;;37.67;;
21671;SDS011;10997;52.242;8.168;2024-03-22T00:59:48;57.08;;;36.97;;
21671;SDS011;10997;52.242;8.168;2024-03-22T01:04:49;58.28;;;38.00;;
21671;SDS011;10997;52.242;8.168;2024-03-22T01:09:50;60.55;;;38.25;;
21671;SDS011;10997;52.242;8.168;2024-03-22T01:14:50;58.03;;;37.38;;
21671;SDS011;10997;52.242;8.168;2024-03-22T01:19:51;56.08;;;36.03;;
21671;SDS011;10997;52.242;8.168;2024-03-22T01:24:52;59.55;;;38.13;;
21671;SDS011;10997;52.242;8.168;2024-03-22T01:29:53;60.85;;;39.08;;
21671;SDS011;10997;52.242;8.168;2024-03-22T01:34:54;60.08;;;38.13;;
21671;SDS011;10997;52.242;8.168;2024-03-22T01:39:54;59.80;;;37.90;;
21671;SDS011;10997;52.242;8.168;2024-03-22T01:44:55;64.30;;;38.60;;
21671;SDS011;10997;52.242;8.168;2024-03-22T01:49:56;70.75;;;39.63;;
21671;SDS011;10997;52.242;8.168;2024-03-22T01:54:57;66.43;;;39.75;;
21671;SDS011;10997;52.242;8.168;2024-03-22T01:59:58;70.63;;;40.67;;
21671;SDS011;10997;52.242;8.168;2024-03-22T02:05:10;67.28;;;41.00;;
21671;SDS011;10997;52.242;8.168;2024-03-22T02:10:16;74.18;;;42.38;;
21671;SDS011;10997;52.242;8.168;2024-03-22T02:15:17;74.53;;;42.85;;
21671;SDS011;10997;52.242;8.168;2024-03-22T02:20:18;72.55;;;41.67;;
21671;SDS011;10997;52.242;8.168;2024-03-22T02:25:19;75.90;;;43.15;;
21671;SDS011;10997;52.242;8.168;2024-03-22T02:30:20;77.38;;;43.17;;
21671;SDS011;10997;52.242;8.168;2024-03-22T02:35:20;78.95;;;44.45;;
21671;SDS011;10997;52.242;8.168;2024-03-22T02:40:21;83.18;;;45.45;;
21671;SDS011;10997;52.242;8.168;2024-03-22T02:45:22;85.90;;;45.72;;
21671;SDS011;10997;52.242;8.168;2024-03-22T02:50:22;81.05;;;45.40;;
21671;SDS011;10997;52.242;8.168;2024-03-22T02:55:23;88.97;;;46.33;;
21671;SDS011;10997;52.242;8.168;2024-03-22T03:00:24;88.22;;;45.50;;
21671;SDS011;10997;52.242;8.168;2024-03-22T03:05:24;83.45;;;44.65;;
21671;SDS011;10997;52.242;8.168;2024-03-22T03:10:25;83.07;;;44.28;;
21671;SDS011;10997;52.242;8.168;2024-03-22T03:15:26;91.75;;;47.97;;
21671;SDS011;10997;52.242;8.168;2024-03-22T03:20:27;85.85;;;45.85;;
21671;SDS011;10997;52.242;8.168;2024-03-22T03:25:27;85.38;;;44.50;;
21671;SDS011;10997;52.242;8.168;2024-03-22T03:30:28;84.72;;;44.28;;
21671;SDS011;10997;52.242;8.168;2024-03-22T03:35:29;86.95;;;45.25;;
21671;SDS011;10997;52.242;8.168;2024-03-22T03:40:29;89.50;;;44.90;;
21671;SDS011;10997;52.242;8.168;2024-03-22T03:45:30;88.15;;;43.88;;
21671;SDS011;10997;52.242;8.168;2024-03-22T03:50:31;88.70;;;44.47;;
21671;SDS011;10997;52.242;8.168;2024-03-22T03:55:32;84.93;;;44.75;;
21671;SDS011;10997;52.242;8.168;2024-03-22T04:00:33;91.55;;;45.08;;
21671;SDS011;10997;52.242;8.168;2024-03-22T04:05:35;93.70;;;46.25;;
21671;SDS011;10997;52.242;8.168;2024-03-22T04:10:35;92.28;;;44.67;;
21671;SDS011;10997;52.242;8.168;2024-03-22T04:15:36;87.28;;;45.08;;
21671;SDS011;10997;52.242;8.168;2024-03-22T04:20:36;86.10;;;43.60;;
21671;SDS011;10997;52.242;8.168;2024-03-22T04:25:37;90.13;;;43.00;;
21671;SDS011;10997;52.242;8.168;2024-03-22T04:30:38;87.82;;;43.38;;
21671;SDS011;10997;52.242;8.168;2024-03-22T04:35:44;82.43;;;41.05;;
21671;SDS011;10997;52.242;8.168;2024-03-22T04:40:45;80.82;;;41.15;;
21671;SDS011;10997;52.242;8.168;2024-03-22T04:45:46;79.25;;;39.40;;
21671;SDS011;10997;52.242;8.168;2024-03-22T04:50:48;80.45;;;39.10;;
21671;SDS011;10997;52.242;8.168;2024-03-22T04:55:50;82.55;;;39.80;;
21671;SDS011;10997;52.242;8.168;2024-03-22T05:00:56;82.68;;;40.70;;
21671;SDS011;10997;52.242;8.168;2024-03-22T05:05:58;77.05;;;39.03;;
21671;SDS011;10997;52.242;8.168;2024-03-22T05:10:58;79.05;;;39.72;;
21671;SDS011;10997;52.242;8.168;2024-03-22T05:15:59;76.57;;;38.15;;
21671;SDS011;10997;52.242;8.168;2024-03-22T05:20:59;78.65;;;40.08;;
21671;SDS011;10997;52.242;8.168;2024-03-22T05:26:00;76.72;;;37.95;;
21671;SDS011;10997;52.242;8.168;2024-03-22T05:31:01;72.35;;;37.25;;
21671;SDS011;10997;52.242;8.168;2024-03-22T05:36:01;78.57;;;38.97;;
21671;SDS011;10997;52.242;8.168;2024-03-22T05:41:05;80.63;;;40.67;;
21671;SDS011;10997;52.242;8.168;2024-03-22T05:46:06;73.72;;;37.60;;
21671;SDS011;10997;52.242;8.168;2024-03-22T05:51:06;76.65;;;39.80;;
21671;SDS011;10997;52.242;8.168;2024-03-22T05:56:07;76.63;;;38.10;;
21671;SDS011;10997;52.242;8.168;2024-03-22T06:01:08;76.68;;;39.40;;
21671;SDS011;10997;52.242;8.168;2024-03-22T06:06:08;74.30;;;39.10;;
21671;SDS011;10997;52.242;8.168;2024-03-22T06:11:09;75.53;;;38.80;;
21671;SDS011;10997;52.242;8.168;2024-03-22T06:16:09;73.65;;;38.33;;
21671;SDS011;10997;52.242;8.168;2024-03-22T06:21:10;71.32;;;38.88;;
21671;SDS011;10997;52.242;8.168;2024-03-22T06:26:11;74.57;;;39.85;;
21671;SDS011;10997;52.242;8.168;2024-03-22T06:31:11;73.90;;;39.92;;
21671;SDS011;10997;52.242;8.168;2024-03-22T06:36:12;76.07;;;39.55;;
21671;SDS011;10997;52.242;8.168;2024-03-22T06:41:13;71.10;;;40.50;;
21671;SDS011;10997;52.242;8.168;2024-03-22T06:46:13;78.15;;;41.72;;
21671;SDS011;10997;52.242;8.168;2024-03-22T06:51:14;80.10;;;43.40;;
21671;SDS011;10997;52.242;8.168;2024-03-22T06:56:15;78.88;;;43.42;;
21671;SDS011;10997;52.242;8.168;2024-03-22T07:01:15;78.63;;;43.65;;
21671;SDS011;10997;52.242;8.168;2024-03-22T07:06:16;74.18;;;42.42;;
21671;SDS011;10997;52.242;8.168;2024-03-22T07:11:16;73.55;;;42.00;;
21671;SDS011;10997;52.242;8.168;2024-03-22T07:16:18;74.75;;;40.90;;
21671;SDS011;10997;52.242;8.168;2024-03-22T07:21:19;72.65;;;40.85;;
21671;SDS011;10997;52.242;8.168;2024-03-22T07:26:20;64.45;;;40.05;;
21671;SDS011;10997;52.242;8.168;2024-03-22T07:31:20;69.85;;;39.85;;
21671;SDS011;10997;52.242;8.168;2024-03-22T07:36:21;64.22;;;37.88;;
21671;SDS011;10997;52.242;8.168;2024-03-22T07:41:22;63.47;;;37.38;;
21671;SDS011;10997;52.242;8.168;2024-03-22T07:46:22;58.58;;;35.72;;
21671;SDS011;10997;52.242;8.168;2024-03-22T07:51:23;61.10;;;35.42;;
21671;SDS011;10997;52.242;8.168;2024-03-22T07:56:23;55.63;;;34.75;;
21671;SDS011;10997;52.242;8.168;2024-03-22T08:01:24;61.50;;;35.47;;
21671;SDS011;10997;52.242;8.168;2024-03-22T08:06:25;58.92;;;34.53;;
21671;SDS011;10997;52.242;8.168;2024-03-22T08:11:26;57.50;;;35.08;;
21671;SDS011;10997;52.242;8.168;2024-03-22T08:16:27;54.78;;;34.15;;
21671;SDS011;10997;52.242;8.168;2024-03-22T08:21:29;53.28;;;32.72;;
21671;SDS011;10997;52.242;8.168;2024-03-22T08:26:29;53.80;;;33.03;;
21671;SDS011;10997;52.242;8.168;2024-03-22T08:31:30;54.25;;;32.67;;
21671;SDS011;10997;52.242;8.168;2024-03-22T08:36:31;51.95;;;32.65;;
21671;SDS011;10997;52.242;8.168;2024-03-22T08:41:31;51.45;;;32.55;;
21671;SDS011;10997;52.242;8.168;2024-03-22T08:46:32;53.00;;;31.13;;
21671;SDS011;10997;52.242;8.168;2024-03-22T08:51:32;44.08;;;26.98;;
21671;SDS011;10997;52.242;8.168;2024-03-22T08:56:33;45.97;;;29.65;;
21671;SDS011;10997;52.242;8.168;2024-03-22T09:01:34;48.25;;;31.35;;
21671;SDS011;10997;52.242;8.168;2024-03-22T09:06:35;45.90;;;30.75;;
21671;SDS011;10997;52.242;8.168;2024-03-22T09:11:35;47.22;;;31.15;;
21671;SDS011;10997;52.242;8.168;2024-03-22T09:16:36;45.70;;;31.08;;
21671;SDS011;10997;52.242;8.168;2024-03-22T09:21:37;50.83;;;30.77;;
21671;SDS011;10997;52.242;8.168;2024-03-22T09:26:37;48.17;;;31.50;;
21671;SDS011;10997;52.242;8.168;2024-03-22T09:31:38;44.55;;;29.48;;
21671;SDS011;10997;52.242;8.168;2024-03-22T09:36:39;45.75;;;29.73;;
21671;SDS011;10997;52.242;8.168;2024-03-22T09:41:42;45.25;;;28.88;;
21671;SDS011;10997;52.242;8.168;2024-03-22T09:46:43;44.00;;;28.35;;
21671;SDS011;10997;52.242;8.168;2024-03-22T09:51:46;40.10;;;27.70;;
21671;SDS011;10997;52.242;8.168;2024-03-22T09:56:49;42.28;;;27.08;;
21671;SDS011;10997;52.242;8.168;2024-03-22T10:01:50;40.30;;;26.65;;
21671;SDS011;10997;52.242;8.168;2024-03-22T10:06:53;44.42;;;26.13;;
21671;SDS011;10997;52.242;8.168;2024-03-22T10:11:54;36.75;;;24.30;;
21671;SDS011;10997;52.242;8.168;2024-03-22T10:16:55;37.03;;;24.08;;
21671;SDS011;10997;52.242;8.168;2024-03-22T10:22:02;38.88;;;24.75;;
21671;SDS011;10997;52.242;8.168;2024-03-22T10:27:03;35.05;;;24.52;;
21671;SDS011;10997;52.242;8.168;2024-03-22T10:32:04;37.95;;;25.55;;
21671;SDS011;10997;52.242;8.168;2024-03-22T10:37:06;37.33;;;25.25;;
21671;SDS011;10997;52.242;8.168;2024-03-22T10:42:08;39.33;;;26.77;;
21671;SDS011;10997;52.242;8.168;2024-03-22T10:47:09;36.05;;;25.65;;
21671;SDS011;10997;52.242;8.168;2024-03-22T10:52:12;39.25;;;27.33;;
21671;SDS011;10997;52.242;8.168;2024-03-22T10:57:14;37.78;;;26.83;;
21671;SDS011;10997;52.242;8.168;2024-03-22T11:02:16;38.97;;;26.23;;
21671;SDS011;10997;52.242;8.168;2024-03-22T11:07:20;39.38;;;26.85;;
21671;SDS011;10997;52.242;8.168;2024-03-22T11:12:21;42.50;;;27.38;;
21671;SDS011;10997;52.242;8.168;2024-03-22T11:17:28;43.63;;;27.52;;
21671;SDS011;10997;52.242;8.168;2024-03-22T11:22:29;42.50;;;27.90;;
21671;SDS011;10997;52.242;8.168;2024-03-22T11:27:30;47.20;;;30.55;;
21671;SDS011;10997;52.242;8.168;2024-03-22T11:32:30;52.92;;;33.08;;
21671;SDS011;10997;52.242;8.168;2024-03-22T11:37:31;48.92;;;32.03;;
21671;SDS011;10997;52.242;8.168;2024-03-22T11:42:33;48.97;;;30.50;;
21671;SDS011;10997;52.242;8.168;2024-03-22T11:47:35;45.55;;;30.27;;
21671;SDS011;10997;52.242;8.168;2024-03-22T11:52:36;48.45;;;30.48;;
21671;SDS011;10997;52.242;8.168;2024-03-22T11:57:36;48.45;;;31.55;;
21671;SDS011;10997;52.242;8.168;2024-03-22T12:02:37;48.28;;;31.55;;
21671;SDS011;10997;52.242;8.168;2024-03-22T12:07:39;44.42;;;28.83;;
21671;SDS011;10997;52.242;8.168;2024-03-22T12:12:40;46.53;;;30.88;;
21671;SDS011;10997;52.242;8.168;2024-03-22T12:17:41;48.88;;;30.02;;
21671;SDS011;10997;52.242;8.168;2024-03-22T12:22:43;48.60;;;29.23;;
21671;SDS011;10997;52.242;8.168;2024-03-22T12:27:43;46.55;;;29.30;;
21671;SDS011;10997;52.242;8.168;2024-03-22T12:32:46;42.97;;;26.85;;
21671;SDS011;10997;52.242;8.168;2024-03-22T12:37:47;36.33;;;25.42;;
21671;SDS011;10997;52.242;8.168;2024-03-22T12:42:47;41.60;;;25.85;;
21671;SDS011;10997;52.242;8.168;2024-03-22T12:47:48;41.42;;;25.00;;
21671;SDS011;10997;52.242;8.168;2024-03-22T12:52:49;40.75;;;26.08;;
21671;SDS011;10997;52.242;8.168;2024-03-22T12:57:49;42.92;;;25.55;;
21671;SDS011;10997;52.242;8.168;2024-03-22T13:02:50;37.10;;;23.45;;
21671;SDS011;10997;52.242;8.168;2024-03-22T13:07:51;41.20;;;23.75;;
21671;SDS011;10997;52.242;8.168;2024-03-22T13:12:52;42.75;;;23.23;;
21671;SDS011;10997;52.242;8.168;2024-03-22T13:17:53;47.10;;;23.95;;
21671;SDS011;10997;52.242;8.168;2024-03-22T13:22:56;40.28;;;22.98;;
21671;SDS011;10997;52.242;8.168;2024-03-22T13:27:56;44.58;;;24.13;;
21671;SDS011;10997;52.242;8.168;2024-03-22T13:32:57;40.58;;;23.73;;
21671;SDS011;10997;52.242;8.168;2024-03-22T13:37:59;43.80;;;23.92;;
21671;SDS011;10997;52.242;8.168;2024-03-22T13:43:00;36.42;;;22.08;;
21671;SDS011;10997;52.242;8.168;2024-03-22T13:48:09;33.88;;;20.38;;
21671;SDS011;10997;52.242;8.168;2024-03-22T13:53:11;36.63;;;22.17;;
21671;SDS011;10997;52.242;8.168;2024-03-22T13:58:12;38.05;;;22.35;;
21671;SDS011;10997;52.242;8.168;2024-03-22T14:03:13;36.45;;;20.02;;
21671;SDS011;10997;52.242;8.168;2024-03-22T14:08:13;34.20;;;20.88;;
21671;SDS011;10997;52.242;8.168;2024-03-22T14:13:14;42.80;;;25.52;;
21671;SDS011;10997;52.242;8.168;2024-03-22T14:18:15;41.08;;;24.55;;
21671;SDS011;10997;52.242;8.168;2024-03-22T14:23:16;33.75;;;20.83;;
21671;SDS011;10997;52.242;8.168;2024-03-22T14:28:16;31.95;;;19.20;;
21671;SDS011;10997;52.242;8.168;2024-03-22T14:33:17;29.10;;;18.27;;
21671;SDS011;10997;52.242;8.168;2024-03-22T14:38:18;27.58;;;17.75;;
21671;SDS011;10997;52.242;8.168;2024-03-22T14:43:18;29.30;;;16.58;;
21671;SDS011;10997;52.242;8.168;2024-03-22T14:48:20;27.08;;;16.17;;
21671;SDS011;10997;52.242;8.168;2024-03-22T14:53:24;26.58;;;15.77;;
21671;SDS011;10997;52.242;8.168;2024-03-22T14:58:25;26.10;;;16.15;;
21671;SDS011;10997;52.242;8.168;2024-03-22T15:03:30;26.83;;;16.70;;
21671;SDS011;10997;52.242;8.168;2024-03-22T15:08:31;27.10;;;16.23;;
21671;SDS011;10997;52.242;8.168;2024-03-22T15:13:32;26.02;;;16.08;;
21671;SDS011;10997;52.242;8.168;2024-03-22T15:18:33;24.63;;;16.15;;
21671;SDS011;10997;52.242;8.168;2024-03-22T15:23:34;24.38;;;14.68;;
21671;SDS011;10997;52.242;8.168;2024-03-22T15:28:35;24.20;;;15.48;;
21671;SDS011;10997;52.242;8.168;2024-03-22T15:33:35;24.10;;;14.18;;
21671;SDS011;10997;52.242;8.168;2024-03-22T15:38:36;22.65;;;14.02;;
21671;SDS011;10997;52.242;8.168;2024-03-22T15:43:37;22.27;;;13.88;;
21671;SDS011;10997;52.242;8.168;2024-03-22T15:48:37;21.83;;;13.10;;
21671;SDS011;10997;52.242;8.168;2024-03-22T15:53:38;20.20;;;12.77;;
21671;SDS011;10997;52.242;8.168;2024-03-22T15:58:39;18.30;;;12.52;;
21671;SDS011;10997;52.242;8.168;2024-03-22T16:03:39;21.80;;;12.80;;
21671;SDS011;10997;52.242;8.168;2024-03-22T16:08:40;18.15;;;11.55;;
21671;SDS011;10997;52.242;8.168;2024-03-22T16:13:40;20.27;;;12.52;;
21671;SDS011;10997;52.242;8.168;2024-03-22T16:18:41;20.48;;;13.00;;
21671;SDS011;10997;52.242;8.168;2024-03-22T16:23:42;16.75;;;11.20;;
21671;SDS011;10997;52.242;8.168;2024-03-22T16:28:43;17.77;;;10.85;;
21671;SDS011;10997;52.242;8.168;2024-03-22T16:33:43;18.83;;;10.88;;
21671;SDS011;10997;52.242;8.168;2024-03-22T16:38:44;14.88;;;9.95;;
21671;SDS011;10997;52.242;8.168;2024-03-22T16:43:45;12.90;;;9.88;;
21671;SDS011;10997;52.242;8.168;2024-03-22T16:48:45;13.32;;;9.23;;
21671;SDS011;10997;52.242;8.168;2024-03-22T16:53:46;14.18;;;8.57;;
21671;SDS011;10997;52.242;8.168;2024-03-22T16:58:47;11.93;;;7.07;;
21671;SDS011;10997;52.242;8.168;2024-03-22T17:03:47;11.65;;;7.65;;
21671;SDS011;10997;52.242;8.168;2024-03-22T17:08:48;12.05;;;7.90;;
21671;SDS011;10997;52.242;8.168;2024-03-22T17:13:49;11.93;;;7.78;;
21671;SDS011;10997;52.242;8.168;2024-03-22T17:18:50;14.32;;;8.68;;
21671;SDS011;10997;52.242;8.168;2024-03-22T17:23:53;14.45;;;9.15;;
21671;SDS011;10997;52.242;8.168;2024-03-22T17:28:54;20.60;;;9.52;;
21671;SDS011;10997;52.242;8.168;2024-03-22T17:33:55;21.50;;;9.88;;
21671;SDS011;10997;52.242;8.168;2024-03-22T17:38:56;24.58;;;9.48;;
21671;SDS011;10997;52.242;8.168;2024-03-22T17:43:57;24.38;;;10.82;;
21671;SDS011;10997;52.242;8.168;2024-03-22T17:48:57;23.95;;;10.80;;
21671;SDS011;10997;52.242;8.168;2024-03-22T17:53:58;28.30;;;11.48;;
21671;SDS011;10997;52.242;8.168;2024-03-22T17:58:59;28.67;;;11.60;;
21671;SDS011;10997;52.242;8.168;2024-03-22T18:04:00;29.40;;;12.55;;
21671;SDS011;10997;52.242;8.168;2024-03-22T18:09:00;32.53;;;12.95;;
21671;SDS011;10997;52.242;8.168;2024-03-22T18:14:01;32.40;;;12.18;;
21671;SDS011;10997;52.242;8.168;2024-03-22T18:19:02;29.83;;;13.07;;
21671;SDS011;10997;52.242;8.168;2024-03-22T18:24:06;29.25;;;12.68;;
21671;SDS011;10997;52.242;8.168;2024-03-22T18:29:07;43.50;;;19.45;;
21671;SDS011;10997;52.242;8.168;2024-03-22T18:34:08;31.92;;;13.50;;
21671;SDS011;10997;52.242;8.168;2024-03-22T18:39:08;39.45;;;15.25;;
21671;SDS011;10997;52.242;8.168;2024-03-22T18:44:09;36.63;;;14.85;;
21671;SDS011;10997;52.242;8.168;2024-03-22T18:49:10;32.78;;;15.48;;
21671;SDS011;10997;52.242;8.168;2024-03-22T18:54:10;35.58;;;16.50;;
21671;SDS011;10997;52.242;8.168;2024-03-22T18:59:13;34.70;;;16.25;;
21671;SDS011;10997;52.242;8.168;2024-03-22T19:04:14;34.17;;;15.70;;
21671;SDS011;10997;52.242;8.168;2024-03-22T19:09:15;35.13;;;16.08;;
21671;SDS011;10997;52.242;8.168;2024-03-22T19:14:15;36.72;;;13.63;;
21671;SDS011;10997;52.242;8.168;2024-03-22T19:19:16;31.75;;;13.73;;
21671;SDS011;10997;52.242;8.168;2024-03-22T19:24:21;32.55;;;13.75;;
21671;SDS011;10997;52.242;8.168;2024-03-22T19:29:22;31.40;;;14.27;;
21671;SDS011;10997;52.242;8.168;2024-03-22T19:34:23;39.40;;;14.43;;
21671;SDS011;10997;52.242;8.168;2024-03-22T19:39:23;34.33;;;15.13;;
21671;SDS011;10997;52.242;8.168;2024-03-22T19:44:24;30.98;;;13.93;;
21671;SDS011;10997;52.242;8.168;2024-03-22T19:49:25;39.50;;;13.52;;
21671;SDS011;10997;52.242;8.168;2024-03-22T19:54:26;33.30;;;12.43;;
21671;SDS011;10997;52.242;8.168;2024-03-22T19:59:30;32.33;;;13.85;;
21671;SDS011;10997;52.242;8.168;2024-03-22T20:04:30;34.30;;;13.20;;
21671;SDS011;10997;52.242;8.168;2024-03-22T20:09:31;36.30;;;14.20;;
21671;SDS011;10997;52.242;8.168;2024-03-22T20:14:32;39.33;;;13.15;;
21671;SDS011;10997;52.242;8.168;2024-03-22T20:19:33;36.03;;;14.10;;
21671;SDS011;10997;52.242;8.168;2024-03-22T20:24:34;34.70;;;13.50;;
21671;SDS011;10997;52.242;8.168;2024-03-22T20:29:37;35.38;;;13.57;;
21671;SDS011;10997;52.242;8.168;2024-03-22T20:34:39;36.58;;;13.30;;
